Time;durP1;ratioP1;P1;durP2;ratioP2;P2;SDS_P1;SDS_P2;PMS_P1;PMS_P2;Temp;Humidity;BMP_temperature;BMP_pressure;BME280_temperature;BME280_humidity;BME280_pressure;Samples;Min_cycle;Max_cycle;Signal;HPM_P1;HPM_P2
2022/08/09 00:00:08;;;;;;;6.43;3.95;;;15.70;92.70;;;;;;5020587;28;20458;-64
2022/08/09 00:02:34;;;;;;;5.28;3.05;;;15.70;92.90;;;;;;5017529;28;20026;-64
2022/08/09 00:05:01;;;;;;;6.18;3.75;;;15.70;92.90;;;;;;5011382;28;20045;-65
2022/08/09 00:07:26;;;;;;;6.68;3.45;;;15.70;92.90;;;;;;5011555;28;20028;-65
2022/08/09 00:09:52;;;;;;;5.50;3.50;;;15.60;92.90;;;;;;5013793;28;20021;-65
2022/08/09 00:12:18;;;;;;;5.68;3.72;;;15.50;93.00;;;;;;5031292;28;20028;-60
2022/08/09 00:14:44;;;;;;;5.45;3.53;;;15.50;93.20;;;;;;5029299;28;20057;-61
2022/08/09 00:17:10;;;;;;;7.65;3.50;;;15.50;93.30;;;;;;5010824;28;20105;-61
2022/08/09 00:19:35;;;;;;;5.70;3.53;;;15.40;93.40;;;;;;5011092;28;20251;-63
2022/08/09 00:22:02;;;;;;;5.20;3.38;;;15.40;93.40;;;;;;5011190;28;20489;-61
2022/08/09 00:24:29;;;;;;;8.23;4.05;;;15.40;93.60;;;;;;5010744;28;20372;-61
2022/08/09 00:26:55;;;;;;;5.68;3.35;;;15.30;93.70;;;;;;5018623;28;20100;-65
2022/08/09 00:29:20;;;;;;;4.78;3.70;;;15.30;93.80;;;;;;5023400;28;20053;-63
2022/08/09 00:31:46;;;;;;;5.55;3.88;;;15.30;93.90;;;;;;5030726;28;20104;-61
2022/08/09 00:34:11;;;;;;;7.55;4.05;;;15.30;93.80;;;;;;5030598;28;20033;-61
2022/08/09 00:36:37;;;;;;;6.65;4.00;;;15.30;94.00;;;;;;5013171;28;20053;-64
2022/08/09 00:39:03;;;;;;;4.88;3.50;;;15.20;94.10;;;;;;5012426;28;20047;-62
2022/08/09 00:41:29;;;;;;;4.85;3.45;;;15.20;94.20;;;;;;5030997;28;20108;-62
2022/08/09 00:43:54;;;;;;;5.40;3.10;;;15.20;94.20;;;;;;5030849;28;20037;-62
2022/08/09 00:46:20;;;;;;;6.53;3.53;;;15.30;94.10;;;;;;5028683;28;20053;-61
2022/08/09 00:48:46;;;;;;;5.22;3.63;;;15.30;94.10;;;;;;5031103;28;20040;-60
2022/08/09 00:51:15;;;;;;;6.57;3.88;;;15.30;94.40;;;;;;5029313;28;20017;-62
2022/08/09 00:53:42;;;;;;;7.53;4.13;;;15.20;94.50;;;;;;5029839;28;20129;-60
2022/08/09 00:56:08;;;;;;;6.30;3.67;;;15.20;94.50;;;;;;5030585;28;20025;-61
2022/08/09 00:58:34;;;;;;;6.15;3.47;;;15.20;94.50;;;;;;5030815;28;20385;-65
2022/08/09 01:01:05;;;;;;;8.10;4.07;;;15.20;94.50;;;;;;5030807;28;20054;-66
2022/08/09 01:03:56;;;;;;;4.70;3.38;;;15.10;94.80;;;;;;5030958;28;20056;-66
2022/08/09 01:06:27;;;;;;;6.50;4.30;;;15.10;94.50;;;;;;5029076;28;20450;-65
2022/08/09 01:09:15;;;;;;;6.38;3.47;;;15.00;94.80;;;;;;5030721;28;20033;-66
2022/08/09 01:11:54;;;;;;;4.53;3.20;;;14.90;94.70;;;;;;5030943;28;20021;-66
2022/08/09 01:14:46;;;;;;;6.05;4.07;;;14.90;94.70;;;;;;5030173;28;20104;-65
2022/08/09 01:17:20;;;;;;;6.10;3.30;;;14.90;94.90;;;;;;5030558;28;20018;-64
2022/08/09 01:19:55;;;;;;;6.05;4.15;;;14.90;94.90;;;;;;5030359;28;20024;-65
2022/08/09 01:22:32;;;;;;;6.63;3.80;;;14.90;95.10;;;;;;5031406;28;20032;-64
2022/08/09 01:25:20;;;;;;;6.55;4.15;;;14.90;95.10;;;;;;5020022;28;20056;-66
2022/08/09 01:27:53;;;;;;;6.82;3.85;;;14.80;95.20;;;;;;5014457;28;20430;-66
2022/08/09 01:30:21;;;;;;;6.75;3.95;;;14.80;95.20;;;;;;5014857;28;20093;-65
2022/08/09 01:32:50;;;;;;;7.05;4.18;;;14.70;95.20;;;;;;5014538;28;20030;-63
2022/08/09 01:35:23;;;;;;;6.38;4.63;;;14.60;95.30;;;;;;5013900;28;20057;-65
2022/08/09 01:37:52;;;;;;;5.63;3.85;;;14.60;95.40;;;;;;4996605;28;20045;-63
2022/08/09 01:40:19;;;;;;;5.75;4.10;;;14.50;95.50;;;;;;5014606;28;20422;-66
2022/08/09 01:42:47;;;;;;;8.45;4.10;;;14.50;95.70;;;;;;5013846;28;20021;-64
2022/08/09 01:45:14;;;;;;;7.72;4.97;;;14.40;95.90;;;;;;5014177;28;20034;-66
2022/08/09 01:47:40;;;;;;;7.30;4.43;;;14.40;96.00;;;;;;5013678;28;20359;-64
2022/08/09 01:50:07;;;;;;;7.45;3.85;;;14.40;96.10;;;;;;5013835;28;20022;-64
2022/08/09 01:52:34;;;;;;;6.10;4.38;;;14.40;96.10;;;;;;5014164;28;20033;-61
2022/08/09 01:55:02;;;;;;;6.22;4.05;;;14.40;96.20;;;;;;5013262;28;20030;-61
2022/08/09 01:57:55;;;;;;;6.15;4.18;;;14.30;96.10;;;;;;5013906;28;20487;-61
2022/08/09 02:00:20;;;;;;;7.63;4.50;;;14.30;96.20;;;;;;4993327;28;20406;-61
2022/08/09 02:02:49;;;;;;;7.47;4.22;;;14.20;96.30;;;;;;5013173;28;20026;-61
2022/08/09 02:05:17;;;;;;;7.97;4.43;;;14.20;96.30;;;;;;5013913;28;20514;-61
2022/08/09 02:07:52;;;;;;;5.72;3.85;;;14.10;96.50;;;;;;5014040;28;20407;-65
2022/08/09 02:10:21;;;;;;;6.90;4.10;;;14.10;96.60;;;;;;5013370;28;20030;-63
2022/08/09 02:12:48;;;;;;;7.53;4.78;;;14.00;96.60;;;;;;5013511;28;20088;-61
2022/08/09 02:15:17;;;;;;;7.90;4.35;;;14.00;96.70;;;;;;5013986;28;20034;-61
2022/08/09 02:17:44;;;;;;;7.03;4.35;;;13.90;96.80;;;;;;5013084;28;20171;-61
2022/08/09 02:20:11;;;;;;;6.18;4.40;;;13.90;97.00;;;;;;5013587;28;20498;-61
2022/08/09 02:22:47;;;;;;;8.20;4.53;;;13.90;96.90;;;;;;5013625;28;20030;-61
2022/08/09 02:25:23;;;;;;;6.93;4.18;;;13.90;97.00;;;;;;5012840;28;20029;-63
2022/08/09 02:27:57;;;;;;;10.13;4.28;;;13.80;97.00;;;;;;5013424;28;20069;-61
2022/08/09 02:30:23;;;;;;;7.07;4.18;;;13.80;97.30;;;;;;4995363;28;20029;-62
2022/08/09 02:32:50;;;;;;;8.80;4.20;;;13.70;97.20;;;;;;5014461;28;20021;-61
2022/08/09 02:35:21;;;;;;;7.60;5.00;;;13.70;97.30;;;;;;5033029;28;20022;-61
2022/08/09 02:37:51;;;;;;;6.90;4.47;;;13.60;97.50;;;;;;5029964;28;20056;-63
2022/08/09 02:40:19;;;;;;;9.43;4.80;;;13.60;97.50;;;;;;5031306;28;20044;-61
2022/08/09 02:42:48;;;;;;;8.63;5.32;;;13.70;97.60;;;;;;5032962;28;20021;-61
2022/08/09 02:45:20;;;;;;;7.40;4.30;;;13.60;97.70;;;;;;5030699;28;20086;-61
2022/08/09 02:47:47;;;;;;;8.35;4.18;;;13.60;97.50;;;;;;4995579;28;20054;-61
2022/08/09 02:50:23;;;;;;;6.90;4.15;;;13.60;97.50;;;;;;5012994;28;20045;-61
2022/08/09 02:52:56;;;;;;;10.02;4.63;;;13.60;97.50;;;;;;5012280;28;20463;-61
2022/08/09 02:55:26;;;;;;;7.32;4.75;;;13.50;97.60;;;;;;5012977;28;20029;-61
2022/08/09 02:57:55;;;;;;;9.50;4.55;;;13.50;97.60;;;;;;5012729;28;20022;-60
2022/08/09 03:00:23;;;;;;;9.13;4.47;;;13.50;97.90;;;;;;5012394;28;20529;-60
2022/08/09 03:02:52;;;;;;;8.77;5.20;;;13.50;97.90;;;;;;5019841;28;20171;-61
2022/08/09 03:05:18;;;;;;;10.57;5.72;;;13.50;98.10;;;;;;5032006;28;20389;-61
2022/08/09 03:07:46;;;;;;;9.43;5.10;;;13.50;98.20;;;;;;5032290;28;20105;-60
2022/08/09 03:10:12;;;;;;;6.75;4.65;;;13.50;98.20;;;;;;5032102;28;20026;-60
2022/08/09 03:12:39;;;;;;;10.35;5.35;;;13.50;98.10;;;;;;5031763;28;20022;-62
2022/08/09 03:15:06;;;;;;;8.57;4.57;;;13.50;98.10;;;;;;5032161;28;20481;-61
2022/08/09 03:17:35;;;;;;;11.52;5.35;;;13.50;98.00;;;;;;5032335;28;20051;-61
2022/08/09 03:20:02;;;;;;;7.88;4.72;;;13.50;98.20;;;;;;5031528;28;20092;-61
2022/08/09 03:22:29;;;;;;;8.48;4.45;;;13.50;98.30;;;;;;5032080;28;20112;-62
2022/08/09 03:24:56;;;;;;;8.10;5.13;;;13.50;98.20;;;;;;5031367;28;20025;-62
2022/08/09 03:27:23;;;;;;;8.00;4.82;;;13.40;98.10;;;;;;5027659;28;20481;-65
2022/08/09 03:29:52;;;;;;;9.95;4.90;;;13.40;98.10;;;;;;5012060;28;20057;-61
2022/08/09 03:32:19;;;;;;;8.38;5.13;;;13.40;98.20;;;;;;5012510;28;20109;-61
2022/08/09 03:34:45;;;;;;;8.13;4.57;;;13.30;98.20;;;;;;5011881;28;20034;-62
2022/08/09 03:37:10;;;;;;;9.80;4.97;;;13.30;98.10;;;;;;5011845;28;20135;-63
2022/08/09 03:39:37;;;;;;;8.88;5.28;;;13.20;98.10;;;;;;5012303;28;20018;-65
2022/08/09 03:42:03;;;;;;;10.15;5.38;;;13.20;98.20;;;;;;5011499;28;20493;-65
2022/08/09 03:44:28;;;;;;;9.60;5.43;;;13.10;98.20;;;;;;4994462;28;20034;-66
2022/08/09 03:46:54;;;;;;;11.15;5.43;;;13.10;98.50;;;;;;5011839;28;20046;-62
2022/08/09 03:49:21;;;;;;;8.40;5.07;;;13.10;98.60;;;;;;5011634;28;20049;-65
2022/08/09 03:51:50;;;;;;;9.05;5.35;;;13.00;98.60;;;;;;5012037;28;20034;-63
2022/08/09 03:54:16;;;;;;;9.02;4.80;;;13.10;98.60;;;;;;5011543;28;20021;-66
2022/08/09 03:56:43;;;;;;;10.82;5.20;;;13.10;98.50;;;;;;5011937;28;20080;-65
2022/08/09 03:59:10;;;;;;;11.35;4.88;;;13.10;98.50;;;;;;5011479;28;20402;-65
2022/08/09 04:01:37;;;;;;;8.48;5.05;;;13.10;98.40;;;;;;5011580;28;20144;-64
2022/08/09 04:04:04;;;;;;;9.60;5.53;;;13.10;98.50;;;;;;5011513;28;20528;-62
2022/08/09 04:06:30;;;;;;;8.70;4.88;;;13.10;98.50;;;;;;5012039;28;20025;-65
2022/08/09 04:08:55;;;;;;;9.68;5.18;;;13.10;98.40;;;;;;5011191;28;20431;-64
2022/08/09 04:11:21;;;;;;;9.20;4.65;;;13.00;98.50;;;;;;5011890;28;20081;-60
2022/08/09 04:13:47;;;;;;;8.15;5.18;;;13.10;98.50;;;;;;5011811;28;20389;-62
2022/08/09 04:16:12;;;;;;;9.85;5.43;;;13.00;98.60;;;;;;5010918;28;20034;-61
2022/08/09 04:18:39;;;;;;;10.73;5.35;;;13.00;98.60;;;;;;5011866;28;20026;-66
2022/08/09 04:21:05;;;;;;;9.20;5.20;;;12.90;98.70;;;;;;5011635;28;20010;-62
2022/08/09 04:23:31;;;;;;;10.32;5.72;;;12.90;98.70;;;;;;5010797;28;20336;-65
2022/08/09 04:25:56;;;;;;;10.57;5.80;;;12.80;98.80;;;;;;5011247;28;20025;-63
2022/08/09 04:28:24;;;;;;;10.07;5.95;;;12.90;98.80;;;;;;5011531;28;20098;-64
2022/08/09 04:30:49;;;;;;;11.43;6.63;;;12.90;98.90;;;;;;5010971;28;20052;-62
2022/08/09 04:33:15;;;;;;;10.63;5.80;;;12.90;99.20;;;;;;5011309;28;20470;-61
2022/08/09 04:35:41;;;;;;;9.25;5.70;;;12.90;99.00;;;;;;5012932;28;20386;-61
2022/08/09 04:38:07;;;;;;;10.27;5.40;;;12.80;98.90;;;;;;5022100;28;20498;-61
2022/08/09 04:40:48;;;;;;;10.98;5.90;;;12.90;98.90;;;;;;5029119;28;20159;-61
2022/08/09 04:43:15;;;;;;;;;;;12.90;98.90;;;;;;5031663;28;20029;-62
2022/08/09 04:45:40;;;;;;;9.73;5.55;;;12.90;98.90;;;;;;5030776;28;19947;-62
2022/08/09 04:48:06;;;;;;;10.43;6.90;;;12.90;99.00;;;;;;5026932;28;20065;-61
2022/08/09 04:50:32;;;;;;;9.65;5.75;;;12.90;99.00;;;;;;5030470;28;20144;-61
2022/08/09 04:52:57;;;;;;;10.45;5.35;;;13.00;98.90;;;;;;5030749;28;20559;-62
2022/08/09 04:55:23;;;;;;;9.55;5.80;;;13.00;98.90;;;;;;5031076;28;20036;-61
2022/08/09 04:57:48;;;;;;;10.13;5.65;;;13.10;99.00;;;;;;5022997;28;20022;-61
2022/08/09 05:00:14;;;;;;;11.82;6.07;;;13.10;98.80;;;;;;5022772;28;20056;-61
2022/08/09 05:02:42;;;;;;;10.13;6.13;;;13.20;98.90;;;;;;5035514;28;20018;-62
2022/08/09 05:05:08;;;;;;;11.85;5.85;;;13.30;99.00;;;;;;5026971;28;20376;-64
2022/08/09 05:07:34;;;;;;;10.25;5.78;;;13.30;98.90;;;;;;5007494;28;20104;-61
2022/08/09 05:10:00;;;;;;;10.60;5.95;;;13.40;98.80;;;;;;5053211;28;20044;-60
2022/08/09 05:12:26;;;;;;;12.02;6.35;;;13.40;98.90;;;;;;5048004;28;20049;-61
2022/08/09 05:14:51;;;;;;;11.43;6.50;;;13.50;99.00;;;;;;5038583;28;20119;-61
2022/08/09 05:17:17;;;;;;;9.35;6.00;;;13.50;98.80;;;;;;5040350;28;20030;-61
2022/08/09 05:19:42;;;;;;;11.75;6.18;;;13.60;98.70;;;;;;5025847;28;20024;-62
2022/08/09 05:22:11;;;;;;;13.15;7.55;;;13.70;98.70;;;;;;5031183;28;20839;-60
2022/08/09 05:24:36;;;;;;;10.93;6.47;;;13.80;98.80;;;;;;5032160;28;20037;-60
2022/08/09 05:27:02;;;;;;;10.18;5.97;;;13.80;98.60;;;;;;5015095;28;20024;-66
2022/08/09 05:29:28;;;;;;;9.88;5.68;;;13.90;98.50;;;;;;5013621;28;20034;-66
2022/08/09 05:31:58;;;;;;;13.43;6.95;;;14.00;98.40;;;;;;5023120;28;20386;-61
2022/08/09 05:34:28;;;;;;;10.30;6.30;;;14.00;98.50;;;;;;5020345;28;20394;-60
2022/08/09 05:36:55;;;;;;;14.77;6.88;;;14.10;98.50;;;;;;5024887;28;20038;-65
2022/08/09 05:39:23;;;;;;;12.82;6.25;;;14.20;98.50;;;;;;5015504;28;20087;-69
2022/08/09 05:41:50;;;;;;;10.45;6.18;;;14.20;98.50;;;;;;5014079;28;20415;-62
2022/08/09 05:44:16;;;;;;;11.63;6.88;;;14.30;98.50;;;;;;5032018;28;20042;-64
2022/08/09 05:46:42;;;;;;;10.82;6.15;;;14.40;98.50;;;;;;5030085;28;20033;-62
2022/08/09 05:49:08;;;;;;;10.18;6.28;;;14.40;98.70;;;;;;5012675;28;20115;-64
2022/08/09 05:51:33;;;;;;;10.45;5.88;;;14.50;98.70;;;;;;5014037;28;20496;-65
2022/08/09 05:53:59;;;;;;;12.88;6.15;;;14.50;98.60;;;;;;5014501;28;20128;-61
2022/08/09 05:56:27;;;;;;;16.50;8.07;;;14.60;98.50;;;;;;5026551;28;20097;-61
2022/08/09 05:58:59;;;;;;;14.15;7.20;;;14.70;98.60;;;;;;5026636;28;20040;-61
2022/08/09 06:01:27;;;;;;;12.63;6.50;;;14.80;98.70;;;;;;5025910;28;20091;-61
2022/08/09 06:03:53;;;;;;;13.50;6.60;;;14.90;98.70;;;;;;5025394;28;20410;-61
2022/08/09 06:06:19;;;;;;;11.73;6.50;;;15.00;98.60;;;;;;5033535;28;20083;-61
2022/08/09 06:08:44;;;;;;;14.20;6.43;;;15.00;98.50;;;;;;5031052;28;20026;-62
2022/08/09 06:11:10;;;;;;;13.38;7.20;;;15.10;98.50;;;;;;5032198;28;20108;-63
2022/08/09 06:13:36;;;;;;;14.40;7.32;;;15.20;98.50;;;;;;5033345;28;20026;-65
2022/08/09 06:16:03;;;;;;;11.82;6.85;;;15.20;98.40;;;;;;5032676;28;20021;-62
2022/08/09 06:18:29;;;;;;;11.20;6.75;;;15.30;98.30;;;;;;5033893;28;20474;-63
2022/08/09 06:20:55;;;;;;;12.85;6.85;;;15.40;98.30;;;;;;5033614;28;20034;-62
2022/08/09 06:23:21;;;;;;;11.77;7.43;;;15.40;98.30;;;;;;5014852;28;20036;-62
2022/08/09 06:25:47;;;;;;;13.70;7.35;;;15.50;98.20;;;;;;5033573;28;20513;-61
2022/08/09 06:28:13;;;;;;;15.07;6.75;;;15.50;98.10;;;;;;5033367;28;20033;-61
2022/08/09 06:30:39;;;;;;;14.18;7.07;;;15.60;98.00;;;;;;5032749;28;20025;-61
2022/08/09 06:33:04;;;;;;;13.30;7.05;;;15.60;98.00;;;;;;5033048;28;20030;-61
2022/08/09 06:35:30;;;;;;;10.70;6.45;;;15.70;98.10;;;;;;5033366;28;20041;-61
2022/08/09 06:37:55;;;;;;;10.05;6.03;;;15.80;97.90;;;;;;5032052;28;20467;-61
2022/08/09 06:40:22;;;;;;;11.70;6.00;;;15.90;97.70;;;;;;5032970;28;20025;-61
2022/08/09 06:42:47;;;;;;;10.00;6.03;;;16.00;97.90;;;;;;5033029;28;20336;-62
2022/08/09 06:45:13;;;;;;;12.25;5.65;;;16.10;97.40;;;;;;5014159;28;20041;-61
2022/08/09 06:47:39;;;;;;;9.55;5.90;;;16.20;97.30;;;;;;5015188;28;20076;-63
2022/08/09 06:50:06;;;;;;;10.85;5.80;;;16.30;97.00;;;;;;5032090;28;20025;-63
2022/08/09 06:52:31;;;;;;;9.43;5.50;;;16.40;96.80;;;;;;5048198;28;20017;-62
2022/08/09 06:54:57;;;;;;;8.98;5.22;;;16.40;96.40;;;;;;5014645;28;20036;-61
2022/08/09 06:57:23;;;;;;;10.40;5.30;;;16.60;96.30;;;;;;5032089;28;20454;-61
2022/08/09 06:59:48;;;;;;;8.85;5.07;;;16.70;95.80;;;;;;5032621;28;20033;-61
2022/08/09 07:02:14;;;;;;;7.88;4.55;;;16.80;95.50;;;;;;5014540;28;20017;-61
2022/08/09 07:04:39;;;;;;;6.90;4.32;;;16.80;95.30;;;;;;5032253;28;20585;-61
2022/08/09 07:07:05;;;;;;;7.85;4.95;;;16.90;95.20;;;;;;5032205;28;20021;-60
2022/08/09 07:09:31;;;;;;;10.93;4.22;;;17.00;95.00;;;;;;5032452;28;20025;-61
2022/08/09 07:11:57;;;;;;;6.07;3.63;;;17.10;94.70;;;;;;5031417;28;20028;-60
2022/08/09 07:14:23;;;;;;;7.60;3.85;;;17.20;94.50;;;;;;5032539;28;20143;-61
2022/08/09 07:16:48;;;;;;;9.02;4.50;;;17.30;94.40;;;;;;5032257;28;20187;-62
2022/08/09 07:19:14;;;;;;;7.13;4.35;;;17.50;94.20;;;;;;5013878;28;20152;-61
2022/08/09 07:21:41;;;;;;;7.63;4.43;;;17.50;94.00;;;;;;5031450;28;20492;-62
2022/08/09 07:24:07;;;;;;;7.70;4.45;;;17.60;93.70;;;;;;5032261;28;20034;-61
2022/08/09 07:26:33;;;;;;;7.38;4.05;;;17.70;93.60;;;;;;5031448;28;20014;-62
2022/08/09 07:28:59;;;;;;;9.00;4.10;;;17.80;93.40;;;;;;5031664;28;20441;-62
2022/08/09 07:31:25;;;;;;;6.18;4.15;;;17.80;93.30;;;;;;5031979;28;20045;-61
2022/08/09 07:33:50;;;;;;;6.05;3.90;;;17.90;92.90;;;;;;5031145;28;20057;-61
2022/08/09 07:36:16;;;;;;;7.68;4.50;;;18.00;93.00;;;;;;5031982;28;20490;-61
2022/08/09 07:38:42;;;;;;;7.72;4.65;;;18.00;92.80;;;;;;5031633;28;20083;-61
2022/08/09 07:41:08;;;;;;;7.82;4.03;;;18.10;92.50;;;;;;5030917;28;20057;-61
2022/08/09 07:43:34;;;;;;;7.63;3.80;;;18.20;92.20;;;;;;5014080;28;20631;-61
2022/08/09 07:45:59;;;;;;;6.68;4.05;;;18.30;92.10;;;;;;5031648;28;20033;-63
2022/08/09 07:48:25;;;;;;;5.68;3.40;;;18.30;91.90;;;;;;5031421;28;20018;-62
2022/08/09 07:50:51;;;;;;;6.20;3.50;;;18.40;91.80;;;;;;5031209;28;20079;-62
2022/08/09 07:53:16;;;;;;;6.47;3.45;;;18.50;91.50;;;;;;5031871;28;20105;-65
2022/08/09 07:55:42;;;;;;;5.53;3.00;;;18.60;91.40;;;;;;5031201;28;20083;-62
2022/08/09 07:58:08;;;;;;;4.53;3.00;;;18.70;91.30;;;;;;5031519;28;20095;-62
2022/08/09 08:00:33;;;;;;;6.65;3.35;;;18.80;91.00;;;;;;5031065;28;20374;-63
2022/08/09 08:03:00;;;;;;;5.50;2.75;;;19.00;90.90;;;;;;5031453;28;20026;-66
2022/08/09 08:05:26;;;;;;;4.88;3.00;;;19.10;90.60;;;;;;5031969;28;20128;-65
2022/08/09 08:07:53;;;;;;;6.45;3.15;;;19.20;90.20;;;;;;5030568;28;20097;-64
2022/08/09 08:10:19;;;;;;;5.18;2.95;;;19.30;89.50;;;;;;5031889;28;20029;-64
2022/08/09 08:12:45;;;;;;;7.57;3.17;;;19.40;88.90;;;;;;5031421;28;20021;-65
2022/08/09 08:15:17;;;;;;;5.38;2.85;;;19.50;88.40;;;;;;5030950;28;20017;-66
2022/08/09 08:17:50;;;;;;;6.03;2.72;;;19.50;87.50;;;;;;5031517;28;20025;-64
2022/08/09 08:20:17;;;;;;;6.13;2.35;;;19.60;86.90;;;;;;5013798;28;20489;-66
2022/08/09 08:22:43;;;;;;;5.78;2.65;;;19.70;86.10;;;;;;5012987;28;20026;-66
2022/08/09 08:25:09;;;;;;;4.40;2.60;;;19.80;85.00;;;;;;5031155;28;20037;-64
2022/08/09 08:27:35;;;;;;;6.50;2.50;;;19.90;84.70;;;;;;5031276;28;20111;-63
2022/08/09 08:30:00;;;;;;;4.45;2.33;;;20.00;84.50;;;;;;5012567;28;20052;-63
2022/08/09 08:32:26;;;;;;;3.55;2.28;;;20.10;84.40;;;;;;5030962;28;20104;-63
2022/08/09 08:34:53;;;;;;;4.65;2.22;;;20.20;84.10;;;;;;5030929;28;20025;-66
2022/08/09 08:37:19;;;;;;;3.42;2.13;;;20.30;83.10;;;;;;5030476;28;20520;-63
2022/08/09 08:39:45;;;;;;;3.40;1.88;;;20.40;82.30;;;;;;5013396;28;20442;-66
2022/08/09 08:42:11;;;;;;;4.38;2.13;;;20.40;81.00;;;;;;5030813;28;20439;-64
2022/08/09 08:44:37;;;;;;;4.88;1.80;;;20.50;80.40;;;;;;5030604;28;20108;-65
2022/08/09 08:47:03;;;;;;;3.65;1.88;;;20.50;78.60;;;;;;5013200;28;20540;-65
2022/08/09 08:49:31;;;;;;;3.88;2.22;;;20.60;78.70;;;;;;5013118;28;20021;-63
2022/08/09 08:51:57;;;;;;;5.57;1.85;;;20.70;77.60;;;;;;5012546;28;20028;-67
2022/08/09 08:54:22;;;;;;;5.18;1.60;;;20.80;77.40;;;;;;5031002;28;20471;-63
2022/08/09 08:56:49;;;;;;;2.95;1.70;;;20.80;76.30;;;;;;5030355;28;20088;-62
2022/08/09 08:59:14;;;;;;;2.80;1.50;;;20.80;75.50;;;;;;5031136;28;20018;-65
2022/08/09 09:01:43;;;;;;;3.53;1.30;;;20.80;74.40;;;;;;5031017;28;20029;-65
2022/08/09 09:04:11;;;;;;;2.15;1.40;;;20.80;74.50;;;;;;5029913;28;20052;-66
2022/08/09 09:06:40;;;;;;;8.68;1.90;;;21.00;74.20;;;;;;5031150;28;20029;-65
2022/08/09 09:09:07;;;;;;;2.35;1.60;;;21.00;73.80;;;;;;5030780;28;20099;-63
2022/08/09 09:11:36;;;;;;;3.97;1.83;;;21.10;74.10;;;;;;5030113;28;20068;-61
2022/08/09 09:14:22;;;;;;;3.08;1.25;;;21.20;73.20;;;;;;5030663;28;20021;-65
2022/08/09 09:16:49;;;;;;;2.75;1.27;;;21.40;71.60;;;;;;5030738;28;20076;-62
2022/08/09 09:19:15;;;;;;;3.75;1.50;;;21.30;73.00;;;;;;5012377;28;20020;-61
2022/08/09 09:22:01;;;;;;;2.60;1.80;;;21.40;71.80;;;;;;5012903;28;20323;-60
2022/08/09 09:24:35;;;;;;;1.30;1.20;;;21.50;70.80;;;;;;5031088;28;20037;-61
2022/08/09 09:27:02;;;;;;;3.03;0.93;;;21.50;69.20;;;;;;5029955;28;20022;-60
2022/08/09 09:29:37;;;;;;;2.78;1.15;;;21.60;68.10;;;;;;5030724;28;20033;-60
2022/08/09 09:32:03;;;;;;;2.30;0.88;;;21.60;68.20;;;;;;5029505;28;20045;-62
2022/08/09 09:34:29;;;;;;;3.38;1.15;;;21.70;67.20;;;;;;5030715;28;20033;-60
2022/08/09 09:36:57;;;;;;;3.00;0.80;;;21.70;68.20;;;;;;5030392;28;20053;-61
2022/08/09 09:39:24;;;;;;;1.35;0.95;;;21.80;67.10;;;;;;5029868;28;20026;-60
2022/08/09 09:41:50;;;;;;;5.63;2.30;;;21.80;67.20;;;;;;5030322;28;20025;-61
2022/08/09 09:44:27;;;;;;;1.52;1.10;;;21.90;67.50;;;;;;5032838;28;20041;-61
2022/08/09 09:47:03;;;;;;;1.63;0.90;;;22.10;66.20;;;;;;5033449;28;20028;-61
2022/08/09 09:49:29;;;;;;;2.17;1.00;;;22.20;65.10;;;;;;5034195;28;20021;-61
2022/08/09 09:52:08;;;;;;;2.83;0.85;;;22.20;64.70;;;;;;5033803;28;20045;-61
2022/08/09 09:54:46;;;;;;;1.50;0.90;;;22.20;64.90;;;;;;5033582;28;20024;-60
2022/08/09 09:57:24;;;;;;;1.70;0.90;;;22.20;64.50;;;;;;5033868;28;20078;-63
2022/08/09 09:59:53;;;;;;;1.20;0.80;;;22.20;64.30;;;;;;5033657;28;20029;-65
2022/08/09 10:02:19;;;;;;;2.88;0.80;;;22.30;64.50;;;;;;5033225;28;20022;-64
2022/08/09 10:05:02;;;;;;;1.80;0.80;;;22.40;64.20;;;;;;5033961;28;20034;-65
2022/08/09 10:07:28;;;;;;;1.15;0.80;;;22.50;63.70;;;;;;5033264;28;20545;-64
2022/08/09 10:09:57;;;;;;;2.40;0.90;;;22.50;62.90;;;;;;5033634;28;20103;-63
2022/08/09 10:12:43;;;;;;;1.33;0.70;;;22.60;62.60;;;;;;5033710;28;20091;-65
2022/08/09 10:15:16;;;;;;;2.47;0.82;;;22.60;62.00;;;;;;5032822;28;20138;-63
2022/08/09 10:17:44;;;;;;;1.10;0.70;;;22.60;61.90;;;;;;5033639;28;20079;-67
2022/08/09 10:20:18;;;;;;;1.30;0.60;;;22.70;62.70;;;;;;5033492;28;20018;-64
2022/08/09 10:22:46;;;;;;;1.80;0.85;;;22.80;62.30;;;;;;5032779;28;20030;-65
2022/08/09 10:25:12;;;;;;;1.23;0.77;;;22.70;61.40;;;;;;5015582;28;20117;-65
2022/08/09 10:27:40;;;;;;;0.70;0.70;;;22.80;62.00;;;;;;5033765;28;20734;-64
2022/08/09 10:30:06;;;;;;;0.98;0.73;;;22.80;61.60;;;;;;5032537;28;20021;-67
2022/08/09 10:32:33;;;;;;;2.95;0.73;;;22.80;61.00;;;;;;5033539;28;20036;-67
2022/08/09 10:34:59;;;;;;;2.88;0.90;;;22.80;60.90;;;;;;5032996;28;20096;-64
2022/08/09 10:37:26;;;;;;;1.63;0.88;;;22.90;60.50;;;;;;5011873;28;20112;-67
2022/08/09 10:39:53;;;;;;;1.67;0.75;;;22.90;61.10;;;;;;5013129;28;20133;-64
2022/08/09 10:42:21;;;;;;;1.15;0.80;;;22.90;60.40;;;;;;5012756;28;20018;-67
2022/08/09 10:45:02;;;;;;;1.05;0.57;;;22.90;60.00;;;;;;5013258;28;20041;-65
2022/08/09 10:47:47;;;;;;;1.20;0.75;;;23.00;58.70;;;;;;5012259;28;20106;-66
2022/08/09 10:53:47;;;;;;;2.28;0.85;;;22.90;58.40;;;;;;5013568;28;20053;-65
2022/08/09 10:56:23;;;;;;;0.65;0.60;;;23.00;60.20;;;;;;5012621;28;20726;-65
2022/08/09 10:58:54;;;;;;;1.17;0.80;;;23.00;60.50;;;;;;5012798;28;20017;-62
2022/08/09 11:01:31;;;;;;;1.95;0.70;;;23.00;60.80;;;;;;5013019;28;20163;-62
2022/08/09 11:04:14;;;;;;;1.20;0.90;;;23.10;59.80;;;;;;5012038;28;20055;-63
2022/08/09 11:06:42;;;;;;;1.10;0.60;;;23.10;59.70;;;;;;5012886;28;20014;-62
2022/08/09 11:09:10;;;;;;;1.58;0.70;;;23.20;60.00;;;;;;5012567;28;20029;-62
2022/08/09 11:11:53;;;;;;;1.48;0.85;;;23.30;60.40;;;;;;5010998;28;20057;-63
2022/08/09 11:14:38;;;;;;;1.85;0.73;;;23.30;60.40;;;;;;5012841;28;20036;-63
2022/08/09 11:17:13;;;;;;;2.72;1.30;;;23.40;59.90;;;;;;5012690;28;20030;-62
2022/08/09 11:19:58;;;;;;;2.20;1.02;;;23.50;59.80;;;;;;5011956;28;20092;-63
2022/08/09 11:22:39;;;;;;;1.10;0.75;;;23.50;58.80;;;;;;5012062;28;20033;-63
2022/08/09 11:25:08;;;;;;;;;;;23.50;57.90;;;;;;5011911;28;20108;-64
2022/08/09 11:27:38;;;;;;;1.08;0.73;;;23.50;59.00;;;;;;5012703;28;19905;-61
2022/08/09 11:30:05;;;;;;;3.22;0.93;;;23.50;58.80;;;;;;5010658;28;20030;-62
2022/08/09 11:32:49;;;;;;;2.13;0.75;;;23.60;58.40;;;;;;5011864;28;20045;-62
2022/08/09 11:35:17;;;;;;;1.13;0.70;;;23.60;59.30;;;;;;5012537;28;20026;-62
2022/08/09 11:37:50;;;;;;;1.15;0.80;;;23.60;59.20;;;;;;5028410;28;20049;-63
2022/08/09 11:40:28;;;;;;;0.70;0.70;;;23.60;59.20;;;;;;5031468;28;20048;-63
2022/08/09 11:42:57;;;;;;;4.13;1.70;;;23.70;57.50;;;;;;5032073;28;20044;-62
2022/08/09 11:45:27;;;;;;;2.63;0.63;;;23.80;55.60;;;;;;5031887;28;20033;-62
2022/08/09 11:47:54;;;;;;;1.15;0.80;;;23.80;56.90;;;;;;5031732;28;20021;-61
2022/08/09 11:50:20;;;;;;;2.50;1.00;;;23.80;57.00;;;;;;5013954;28;20029;-61
2022/08/09 11:52:58;;;;;;;1.27;0.88;;;23.90;56.20;;;;;;5013220;28;20421;-62
2022/08/09 11:55:38;;;;;;;1.92;0.60;;;23.90;56.10;;;;;;5031711;28;20033;-62
2022/08/09 11:58:27;;;;;;;3.28;0.70;;;24.00;56.10;;;;;;5013634;28;20474;-62
2022/08/09 12:00:58;;;;;;;1.55;0.70;;;24.00;55.00;;;;;;5012498;28;20401;-62
2022/08/09 12:03:25;;;;;;;1.02;0.63;;;24.00;54.20;;;;;;5031449;28;20229;-62
2022/08/09 12:05:54;;;;;;;0.65;0.65;;;24.00;54.90;;;;;;5030898;28;20071;-62
2022/08/09 12:08:21;;;;;;;2.40;0.82;;;24.10;55.10;;;;;;5030994;28;20029;-62
2022/08/09 12:10:52;;;;;;;1.33;0.57;;;24.10;55.10;;;;;;5031489;28;20024;-62
2022/08/09 12:13:49;;;;;;;0.93;0.85;;;24.10;54.90;;;;;;5031652;28;20025;-65
2022/08/09 12:16:22;;;;;;;1.10;0.60;;;24.10;54.60;;;;;;5018960;28;20545;-66
2022/08/09 12:18:50;;;;;;;1.00;0.73;;;24.20;55.20;;;;;;5031365;28;20037;-63
2022/08/09 12:21:39;;;;;;;3.28;0.80;;;24.30;54.50;;;;;;5013277;28;20017;-63
2022/08/09 12:24:07;;;;;;;1.20;0.50;;;24.30;53.80;;;;;;5030993;28;20099;-66
2022/08/09 12:26:58;;;;;;;0.60;0.60;;;24.40;54.40;;;;;;5031349;28;20025;-65
2022/08/09 12:29:27;;;;;;;1.02;0.82;;;24.50;55.50;;;;;;5030760;28;20132;-63
2022/08/09 12:32:05;;;;;;;1.15;0.70;;;24.50;55.90;;;;;;5013272;28;20013;-63
2022/08/09 12:34:41;;;;;;;0.70;0.50;;;24.60;55.10;;;;;;5031113;28;20030;-66
2022/08/09 12:37:09;;;;;;;0.80;0.60;;;24.50;53.90;;;;;;5030609;28;20551;-65
2022/08/09 12:39:34;;;;;;;3.22;0.73;;;24.50;53.60;;;;;;5031361;28;20416;-65
2022/08/09 12:42:13;;;;;;;1.05;0.73;;;24.50;54.20;;;;;;5012550;28;20024;-64
2022/08/09 12:44:40;;;;;;;1.33;0.70;;;24.50;52.40;;;;;;5031037;28;20137;-66
2022/08/09 12:47:07;;;;;;;3.08;0.70;;;24.60;52.10;;;;;;5012929;28;20126;-63
2022/08/09 12:49:33;;;;;;;0.52;0.50;;;24.60;52.30;;;;;;5012776;28;20029;-65
2022/08/09 12:51:59;;;;;;;2.17;0.68;;;24.60;52.90;;;;;;5030487;28;20143;-63
2022/08/09 12:54:25;;;;;;;1.40;0.90;;;24.60;53.50;;;;;;5031583;28;20033;-65
2022/08/09 12:56:52;;;;;;;1.45;0.52;;;24.70;52.30;;;;;;5029936;28;20413;-63